sensor_id;sensor_type;location;lat;lon;timestamp;pressure;altitude;pressure_sealevel;temperature;humidity
66021;BME280;52789;59.980;30.346;2022-12-07T00:01:38;101234.19;;;-4.81;94.86
66021;BME280;52789;59.980;30.346;2022-12-07T00:04:06;101234.03;;;-4.76;94.38
66021;BME280;52789;59.980;30.346;2022-12-07T00:06:39;101239.16;;;-4.75;95.24
66021;BME280;52789;59.980;30.346;2022-12-07T00:09:08;101223.56;;;-4.75;94.68
66021;BME280;52789;59.980;30.346;2022-12-07T00:11:34;101238.09;;;-4.69;94.51
66021;BME280;52789;59.980;30.346;2022-12-07T00:14:02;101246.28;;;-4.80;93.62
66021;BME280;52789;59.980;30.346;2022-12-07T00:16:31;101224.84;;;-4.86;94.57
66021;BME280;52789;59.980;30.346;2022-12-07T00:18:58;101235.31;;;-4.88;94.67
66021;BME280;52789;59.980;30.346;2022-12-07T00:21:29;101225.38;;;-5.02;94.96
66021;BME280;52789;59.980;30.346;2022-12-07T00:23:56;101219.84;;;-4.92;94.97
66021;BME280;52789;59.980;30.346;2022-12-07T00:26:27;101224.91;;;-4.88;95.30
66021;BME280;52789;59.980;30.346;2022-12-07T00:28:57;101223.16;;;-4.87;94.99
66021;BME280;52789;59.980;30.346;2022-12-07T00:31:28;101221.34;;;-4.85;95.14
66021;BME280;52789;59.980;30.346;2022-12-07T00:33:54;101220.41;;;-4.83;95.09
66021;BME280;52789;59.980;30.346;2022-12-07T00:36:22;101230.78;;;-4.83;94.77
66021;BME280;52789;59.980;30.346;2022-12-07T00:38:48;101229.09;;;-4.84;95.78
66021;BME280;52789;59.980;30.346;2022-12-07T00:41:16;101229.09;;;-4.84;95.45
66021;BME280;52789;59.980;30.346;2022-12-07T00:43:43;101221.13;;;-4.79;95.43
66021;BME280;52789;59.980;30.346;2022-12-07T00:46:10;101233.69;;;-4.67;94.98
66021;BME280;52789;59.980;30.346;2022-12-07T00:48:35;101230.28;;;-4.69;94.51
66021;BME280;52789;59.980;30.346;2022-12-07T00:51:02;101223.56;;;-4.75;95.42
66021;BME280;52789;59.980;30.346;2022-12-07T00:53:28;101232.03;;;-4.70;95.46
66021;BME280;52789;59.980;30.346;2022-12-07T00:56:23;101225.22;;;-4.72;94.95
66021;BME280;52789;59.980;30.346;2022-12-07T00:58:53;101235.31;;;-4.64;95.48
66021;BME280;52789;59.980;30.346;2022-12-07T01:01:19;101221.88;;;-4.76;95.98
66021;BME280;52789;59.980;30.346;2022-12-07T01:03:44;101243.19;;;-4.66;95.50
66021;BME280;52789;59.980;30.346;2022-12-07T01:06:14;101230.41;;;-4.72;96.46
66021;BME280;52789;59.980;30.346;2022-12-07T01:08:40;101229.44;;;-4.70;96.10
66021;BME280;52789;59.980;30.346;2022-12-07T01:11:07;101238.56;;;-4.58;95.63
66021;BME280;52789;59.980;30.346;2022-12-07T01:13:35;101216.41;;;-4.68;95.52
66021;BME280;52789;59.980;30.346;2022-12-07T01:16:04;101241.06;;;-4.55;95.92
66021;BME280;52789;59.980;30.346;2022-12-07T01:18:33;101233.44;;;-4.59;96.07
66021;BME280;52789;59.980;30.346;2022-12-07T01:21:01;101237.84;;;-4.61;95.43
66021;BME280;52789;59.980;30.346;2022-12-07T01:23:28;101232.72;;;-4.64;95.31
66021;BME280;52789;59.980;30.346;2022-12-07T01:25:58;101237.88;;;-4.63;95.03
66021;BME280;52789;59.980;30.346;2022-12-07T01:28:24;101233.44;;;-4.59;95.26
66021;BME280;52789;59.980;30.346;2022-12-07T01:33:21;101237.94;;;-4.41;94.62
66021;BME280;52789;59.980;30.346;2022-12-07T01:35:46;101227.78;;;-4.47;94.78
66021;BME280;52789;59.980;30.346;2022-12-07T01:38:12;101213.19;;;-4.51;94.22
66021;BME280;52789;59.980;30.346;2022-12-07T01:40:38;101227.78;;;-4.47;94.72
66021;BME280;52789;59.980;30.346;2022-12-07T01:43:11;101229.34;;;-4.43;94.30
66021;BME280;52789;59.980;30.346;2022-12-07T01:45:41;101231.78;;;-4.39;94.35
66021;BME280;52789;59.980;30.346;2022-12-07T01:48:08;101227.66;;;-4.44;94.03
66021;BME280;52789;59.980;30.346;2022-12-07T01:50:36;101233.47;;;-4.38;93.76
66021;BME280;52789;59.980;30.346;2022-12-07T01:53:04;101221.28;;;-4.36;93.82
66021;BME280;52789;59.980;30.346;2022-12-07T01:55:32;101211.94;;;-4.41;93.37
66021;BME280;52789;59.980;30.346;2022-12-07T01:57:59;101211.16;;;-4.43;92.55
66021;BME280;52789;59.980;30.346;2022-12-07T02:00:25;101223.13;;;-4.39;93.21
66021;BME280;52789;59.980;30.346;2022-12-07T02:02:57;101225.75;;;-4.39;94.30
66021;BME280;52789;59.980;30.346;2022-12-07T02:05:26;101232.56;;;-4.37;93.60
66021;BME280;52789;59.980;30.346;2022-12-07T02:07:53;101227.31;;;-4.35;94.16
66021;BME280;52789;59.980;30.346;2022-12-07T02:10:23;101230.16;;;-4.18;94.32
66021;BME280;52789;59.980;30.346;2022-12-07T02:12:51;101231.72;;;-4.14;93.29
66021;BME280;52789;59.980;30.346;2022-12-07T02:21:37;101231.84;;;-4.40;95.59
66021;BME280;52789;59.980;30.346;2022-12-07T02:27:46;101208.13;;;-4.31;95.21
66021;BME280;52789;59.980;30.346;2022-12-07T02:30:17;101226.41;;;-4.11;95.13
66021;BME280;52789;59.980;30.346;2022-12-07T02:33:14;101216.25;;;-4.17;95.56
66021;BME280;52789;59.980;30.346;2022-12-07T02:35:57;101218.28;;;-4.25;95.98
66021;BME280;52789;59.980;30.346;2022-12-07T02:43:31;101219.97;;;-4.24;96.09
66021;BME280;52789;59.980;30.346;2022-12-07T02:46:03;101211.28;;;-4.23;96.21
66021;BME280;52789;59.980;30.346;2022-12-07T02:48:31;101213.22;;;-4.28;96.33
66021;BME280;52789;59.980;30.346;2022-12-07T02:50:58;101202.16;;;-4.34;95.66
66021;BME280;52789;59.980;30.346;2022-12-07T02:53:41;101197.03;;;-4.36;96.66
66021;BME280;52789;59.980;30.346;2022-12-07T02:56:26;101203.72;;;-4.29;96.62
66021;BME280;52789;59.980;30.346;2022-12-07T03:02:20;101202.81;;;-4.28;96.62
66021;BME280;52789;59.980;30.346;2022-12-07T03:13:25;101193.50;;;-4.12;95.33
66021;BME280;52789;59.980;30.346;2022-12-07T03:18:24;101192.84;;;-4.17;94.74
66021;BME280;52789;59.980;30.346;2022-12-07T03:20:54;101195.66;;;-4.23;95.22
66021;BME280;52789;59.980;30.346;2022-12-07T03:23:23;101199.06;;;-4.21;96.12
66021;BME280;52789;59.980;30.346;2022-12-07T03:25:56;101196.88;;;-4.10;95.69
66021;BME280;52789;59.980;30.346;2022-12-07T03:28:27;101188.16;;;-4.09;95.77
66021;BME280;52789;59.980;30.346;2022-12-07T03:31:15;101200.06;;;-4.01;96.95
66021;BME280;52789;59.980;30.346;2022-12-07T03:33:48;101198.97;;;-3.96;96.23
66021;BME280;52789;59.980;30.346;2022-12-07T03:36:21;101194.88;;;-4.01;96.47
66021;BME280;52789;59.980;30.346;2022-12-07T03:38:57;101194.97;;;-4.04;96.44
66021;BME280;52789;59.980;30.346;2022-12-07T03:41:29;101188.16;;;-4.09;97.02
66021;BME280;52789;59.980;30.346;2022-12-07T03:43:56;101183.09;;;-4.12;96.51
66021;BME280;52789;59.980;30.346;2022-12-07T03:51:54;101116.41;;;-4.58;97.76
66021;BME280;52789;59.980;30.346;2022-12-07T03:54:27;101161.06;;;-4.25;97.65
66021;BME280;52789;59.980;30.346;2022-12-07T03:56:54;101178.84;;;-4.14;96.54
66021;BME280;52789;59.980;30.346;2022-12-07T03:59:21;101167.50;;;-4.33;97.42
66021;BME280;52789;59.980;30.346;2022-12-07T04:01:55;101172.84;;;-4.38;97.84
66021;BME280;52789;59.980;30.346;2022-12-07T04:04:25;101180.44;;;-4.32;98.37
66021;BME280;52789;59.980;30.346;2022-12-07T04:06:51;101183.69;;;-4.27;98.38
66021;BME280;52789;59.980;30.346;2022-12-07T04:09:17;101171.38;;;-4.22;98.81
66021;BME280;52789;59.980;30.346;2022-12-07T04:11:43;101168.50;;;-4.16;98.53
66021;BME280;52789;59.980;30.346;2022-12-07T04:14:08;101168.22;;;-4.08;97.81
66021;BME280;52789;59.980;30.346;2022-12-07T04:16:51;101166.25;;;-4.01;97.70
66021;BME280;52789;59.980;30.346;2022-12-07T04:19:19;101175.88;;;-4.03;97.59
66021;BME280;52789;59.980;30.346;2022-12-07T04:21:46;101175.03;;;-4.04;97.79
66021;BME280;52789;59.980;30.346;2022-12-07T04:24:13;101164.75;;;-4.09;97.90
66021;BME280;52789;59.980;30.346;2022-12-07T04:26:40;101171.50;;;-4.03;98.13
66021;BME280;52789;59.980;30.346;2022-12-07T04:29:06;101147.72;;;-4.16;96.93
66021;BME280;52789;59.980;30.346;2022-12-07T04:31:31;101170.66;;;-4.03;97.64
66021;BME280;52789;59.980;30.346;2022-12-07T04:33:57;101154.22;;;-4.06;96.88
66021;BME280;52789;59.980;30.346;2022-12-07T04:36:22;101137.50;;;-4.20;97.51
66021;BME280;52789;59.980;30.346;2022-12-07T04:38:48;101145.09;;;-4.16;97.20
66021;BME280;52789;59.980;30.346;2022-12-07T04:41:13;101155.31;;;-4.11;97.12
66021;BME280;52789;59.980;30.346;2022-12-07T04:43:39;101157.09;;;-4.12;97.72
66021;BME280;52789;59.980;30.346;2022-12-07T04:46:04;101152.78;;;-4.13;97.72
66021;BME280;52789;59.980;30.346;2022-12-07T04:48:30;101158.84;;;-4.12;97.72
66021;BME280;52789;59.980;30.346;2022-12-07T04:50:56;101162.16;;;-4.09;98.39
66021;BME280;52789;59.980;30.346;2022-12-07T04:53:22;101154.22;;;-4.04;97.80
66021;BME280;52789;59.980;30.346;2022-12-07T04:55:48;101163.50;;;-3.98;97.50
66021;BME280;52789;59.980;30.346;2022-12-07T04:58:13;101160.97;;;-4.00;96.79
66021;BME280;52789;59.980;30.346;2022-12-07T05:00:39;101150.69;;;-4.03;97.23
66021;BME280;52789;59.980;30.346;2022-12-07T05:03:05;101163.59;;;-4.00;96.82
66021;BME280;52789;59.980;30.346;2022-12-07T05:05:31;101158.50;;;-4.03;96.80
66021;BME280;52789;59.980;30.346;2022-12-07T05:07:56;101161.56;;;-3.93;97.11
66021;BME280;52789;59.980;30.346;2022-12-07T05:10:22;101171.84;;;-3.90;96.64
66021;BME280;52789;59.980;30.346;2022-12-07T05:12:47;101166.84;;;-3.95;96.34
66021;BME280;52789;59.980;30.346;2022-12-07T05:15:14;101170.28;;;-3.94;96.54
66021;BME280;52789;59.980;30.346;2022-12-07T05:17:40;101156.97;;;-4.09;96.97
66021;BME280;52789;59.980;30.346;2022-12-07T05:20:08;101166.06;;;-3.97;96.40
66021;BME280;52789;59.980;30.346;2022-12-07T05:22:34;101168.59;;;-3.95;96.69
66021;BME280;52789;59.980;30.346;2022-12-07T05:25:00;101160.19;;;-4.02;95.17
66021;BME280;52789;59.980;30.346;2022-12-07T05:27:25;101163.00;;;-4.08;94.96
66021;BME280;52789;59.980;30.346;2022-12-07T05:29:51;101170.09;;;-4.12;96.13
66021;BME280;52789;59.980;30.346;2022-12-07T05:32:17;101154.06;;;-4.23;96.41
66021;BME280;52789;59.980;30.346;2022-12-07T05:34:42;101160.00;;;-4.19;96.62
66021;BME280;52789;59.980;30.346;2022-12-07T05:37:08;101157.69;;;-4.27;97.19
66021;BME280;52789;59.980;30.346;2022-12-07T05:39:39;101150.28;;;-4.38;97.41
66021;BME280;52789;59.980;30.346;2022-12-07T05:42:09;101172.16;;;-4.20;97.04
66021;BME280;52789;59.980;30.346;2022-12-07T05:44:43;101163.56;;;-4.22;97.65
66021;BME280;52789;59.980;30.346;2022-12-07T05:47:10;101165.56;;;-4.28;97.77
66021;BME280;52789;59.980;30.346;2022-12-07T05:49:35;101129.91;;;-4.48;98.44
66021;BME280;52789;59.980;30.346;2022-12-07T05:52:01;101165.38;;;-4.24;98.29
66021;BME280;52789;59.980;30.346;2022-12-07T05:54:27;101165.38;;;-4.24;98.07
66021;BME280;52789;59.980;30.346;2022-12-07T05:56:55;101158.66;;;-4.29;97.68
66021;BME280;52789;59.980;30.346;2022-12-07T05:59:21;101168.34;;;-4.33;98.54
66021;BME280;52789;59.980;30.346;2022-12-07T06:01:59;101166.59;;;-4.34;98.52
66021;BME280;52789;59.980;30.346;2022-12-07T06:04:28;101163.34;;;-4.39;98.98
66021;BME280;52789;59.980;30.346;2022-12-07T06:06:54;101159.22;;;-4.45;98.59
66021;BME280;52789;59.980;30.346;2022-12-07T06:09:24;101165.28;;;-4.44;99.14
66021;BME280;52789;59.980;30.346;2022-12-07T06:11:50;101160.91;;;-4.44;99.73
66021;BME280;52789;59.980;30.346;2022-12-07T06:14:35;101160.56;;;-4.34;98.92
66021;BME280;52789;59.980;30.346;2022-12-07T06:17:00;101139.38;;;-4.47;98.17
66021;BME280;52789;59.980;30.346;2022-12-07T06:19:26;101153.72;;;-4.37;98.07
66021;BME280;52789;59.980;30.346;2022-12-07T06:21:53;101151.13;;;-4.37;97.80
66021;BME280;52789;59.980;30.346;2022-12-07T06:24:18;101152.03;;;-4.38;96.99
66021;BME280;52789;59.980;30.346;2022-12-07T06:26:44;101152.50;;;-4.27;97.35
66021;BME280;52789;59.980;30.346;2022-12-07T06:29:11;101157.50;;;-4.22;97.61
66021;BME280;52789;59.980;30.346;2022-12-07T06:31:39;101148.00;;;-4.23;96.83
66021;BME280;52789;59.980;30.346;2022-12-07T06:34:16;101158.22;;;-4.19;97.06
66021;BME280;52789;59.980;30.346;2022-12-07T06:36:43;101146.31;;;-4.24;96.79
66021;BME280;52789;59.980;30.346;2022-12-07T06:39:10;101148.31;;;-4.31;96.89
66021;BME280;52789;59.980;30.346;2022-12-07T06:41:44;101145.94;;;-4.37;96.86
66021;BME280;52789;59.980;30.346;2022-12-07T06:44:10;101152.75;;;-4.34;97.08
66021;BME280;52789;59.980;30.346;2022-12-07T06:46:36;101145.09;;;-4.38;97.33
66021;BME280;52789;59.980;30.346;2022-12-07T06:49:02;101153.78;;;-4.39;97.35
66021;BME280;52789;59.980;30.346;2022-12-07T06:51:27;101163.97;;;-4.32;97.26
66021;BME280;52789;59.980;30.346;2022-12-07T06:53:53;101157.75;;;-4.28;97.73
66021;BME280;52789;59.980;30.346;2022-12-07T06:56:18;101147.91;;;-4.20;96.88
66021;BME280;52789;59.980;30.346;2022-12-07T06:58:44;101151.88;;;-4.12;96.13
66021;BME280;52789;59.980;30.346;2022-12-07T07:01:15;101148.75;;;-4.20;96.26
66021;BME280;52789;59.980;30.346;2022-12-07T07:03:42;101160.66;;;-4.14;96.46
66021;BME280;52789;59.980;30.346;2022-12-07T07:06:08;101163.91;;;-4.09;96.56
66021;BME280;52789;59.980;30.346;2022-12-07T07:08:35;101160.59;;;-4.13;95.16
66021;BME280;52789;59.980;30.346;2022-12-07T07:11:00;101158.84;;;-4.12;95.20
66021;BME280;52789;59.980;30.346;2022-12-07T07:13:26;101161.38;;;-4.11;95.29
66021;BME280;52789;59.980;30.346;2022-12-07T07:15:52;101170.66;;;-4.03;94.74
66021;BME280;52789;59.980;30.346;2022-12-07T07:18:19;101173.06;;;-3.99;93.73
66021;BME280;52789;59.980;30.346;2022-12-07T07:20:45;101130.34;;;-4.15;94.41
66021;BME280;52789;59.980;30.346;2022-12-07T07:23:11;101162.03;;;-4.06;93.70
66021;BME280;52789;59.980;30.346;2022-12-07T07:25:37;101160.34;;;-4.07;93.51
66021;BME280;52789;59.980;30.346;2022-12-07T07:28:05;101158.56;;;-4.04;94.00
66021;BME280;52789;59.980;30.346;2022-12-07T07:30:34;101164.38;;;-3.98;93.51
66021;BME280;52789;59.980;30.346;2022-12-07T07:33:00;101157.66;;;-4.03;93.63
66021;BME280;52789;59.980;30.346;2022-12-07T07:35:28;101157.66;;;-4.03;94.37
66021;BME280;52789;59.980;30.346;2022-12-07T07:37:53;101159.03;;;-3.95;93.94
66021;BME280;52789;59.980;30.346;2022-12-07T07:40:19;101148.44;;;-3.90;93.01
66021;BME280;52789;59.980;30.346;2022-12-07T07:42:50;101137.13;;;-3.89;92.64
66021;BME280;52789;59.980;30.346;2022-12-07T07:45:18;101154.19;;;-3.82;92.40
66021;BME280;52789;59.980;30.346;2022-12-07T07:47:44;101158.34;;;-3.78;93.09
66021;BME280;52789;59.980;30.346;2022-12-07T07:50:10;101147.16;;;-3.80;91.94
66021;BME280;52789;59.980;30.346;2022-12-07T07:52:35;101151.03;;;-3.90;92.45
66021;BME280;52789;59.980;30.346;2022-12-07T07:55:01;101155.34;;;-3.89;93.10
66021;BME280;52789;59.980;30.346;2022-12-07T07:57:27;101161.19;;;-3.84;93.51
66021;BME280;52789;59.980;30.346;2022-12-07T07:59:52;101160.94;;;-3.78;92.83
66021;BME280;52789;59.980;30.346;2022-12-07T08:02:19;101150.19;;;-3.69;92.54
66021;BME280;52789;59.980;30.346;2022-12-07T08:04:45;101153.44;;;-3.64;92.47
66021;BME280;52789;59.980;30.346;2022-12-07T08:07:12;101157.69;;;-3.61;91.41
66021;BME280;52789;59.980;30.346;2022-12-07T08:09:38;101155.13;;;-3.63;91.72
66021;BME280;52789;59.980;30.346;2022-12-07T08:12:04;101151.63;;;-3.62;91.47
66021;BME280;52789;59.980;30.346;2022-12-07T08:14:30;101149.94;;;-3.63;91.72
66021;BME280;52789;59.980;30.346;2022-12-07T08:16:56;101151.88;;;-3.68;92.41
66021;BME280;52789;59.980;30.346;2022-12-07T08:19:23;101157.44;;;-3.77;92.36
66021;BME280;52789;59.980;30.346;2022-12-07T08:21:49;101138.09;;;-3.92;92.76
66021;BME280;52789;59.980;30.346;2022-12-07T08:24:14;101153.47;;;-3.86;93.27
66021;BME280;52789;59.980;30.346;2022-12-07T08:26:41;101149.75;;;-3.80;94.24
66021;BME280;52789;59.980;30.346;2022-12-07T08:29:07;101147.94;;;-3.78;94.11
66021;BME280;52789;59.980;30.346;2022-12-07T08:31:32;101148.72;;;-3.76;94.70
66021;BME280;52789;59.980;30.346;2022-12-07T08:33:58;101141.28;;;-3.85;94.50
66021;BME280;52789;59.980;30.346;2022-12-07T08:36:23;101139.59;;;-3.86;95.73
66021;BME280;52789;59.980;30.346;2022-12-07T08:38:50;101134.66;;;-3.92;96.00
66021;BME280;52789;59.980;30.346;2022-12-07T08:41:15;101142.44;;;-3.92;96.04
66021;BME280;52789;59.980;30.346;2022-12-07T08:43:41;101134.13;;;-4.00;96.37
66021;BME280;52789;59.980;30.346;2022-12-07T08:48:39;101135.81;;;-3.99;96.85
66021;BME280;52789;59.980;30.346;2022-12-07T08:51:06;101122.94;;;-4.02;96.13
66021;BME280;52789;59.980;30.346;2022-12-07T08:53:33;101131.66;;;-4.05;96.31
66021;BME280;52789;59.980;30.346;2022-12-07T08:56:00;101124.50;;;-3.98;97.52
66021;BME280;52789;59.980;30.346;2022-12-07T08:58:26;101118.44;;;-3.99;97.24
66021;BME280;52789;59.980;30.346;2022-12-07T09:00:52;101124.19;;;-3.91;97.20
66021;BME280;52789;59.980;30.346;2022-12-07T09:03:17;101129.84;;;-3.81;96.98
66021;BME280;52789;59.980;30.346;2022-12-07T09:05:43;101116.91;;;-3.83;96.83
66021;BME280;52789;59.980;30.346;2022-12-07T09:08:08;101119.44;;;-3.81;96.86
66021;BME280;52789;59.980;30.346;2022-12-07T09:10:34;101112.41;;;-3.79;97.40
66021;BME280;52789;59.980;30.346;2022-12-07T09:12:59;101115.69;;;-3.74;97.45
66021;BME280;52789;59.980;30.346;2022-12-07T09:15:27;101108.13;;;-3.80;97.76
66021;BME280;52789;59.980;30.346;2022-12-07T09:17:53;101089.56;;;-3.93;97.55
66021;BME280;52789;59.980;30.346;2022-12-07T09:20:19;101106.13;;;-3.73;97.02
66021;BME280;52789;59.980;30.346;2022-12-07T09:22:45;101105.44;;;-3.79;96.39
66021;BME280;52789;59.980;30.346;2022-12-07T09:25:10;101113.88;;;-3.72;96.71
66021;BME280;52789;59.980;30.346;2022-12-07T09:27:36;101120.78;;;-3.71;96.15
66021;BME280;52789;59.980;30.346;2022-12-07T09:30:03;101098.63;;;-3.81;96.24
66021;BME280;52789;59.980;30.346;2022-12-07T09:32:29;101100.69;;;-3.89;97.07
66021;BME280;52789;59.980;30.346;2022-12-07T09:34:55;101112.28;;;-3.76;97.53
66021;BME280;52789;59.980;30.346;2022-12-07T09:37:20;101109.25;;;-3.65;97.65
66021;BME280;52789;59.980;30.346;2022-12-07T09:39:46;101102.69;;;-3.54;96.76
66021;BME280;52789;59.980;30.346;2022-12-07T09:44:46;101115.84;;;-3.36;95.32
66021;BME280;52789;59.980;30.346;2022-12-07T09:47:12;101108.22;;;-3.41;94.20
66021;BME280;52789;59.980;30.346;2022-12-07T09:49:37;101095.66;;;-3.52;93.86
66021;BME280;52789;59.980;30.346;2022-12-07T09:54:46;101109.56;;;-3.53;94.18
66021;BME280;52789;59.980;30.346;2022-12-07T09:57:12;101094.94;;;-3.55;94.18
66021;BME280;52789;59.980;30.346;2022-12-07T09:59:39;101087.06;;;-3.54;93.57
66021;BME280;52789;59.980;30.346;2022-12-07T10:02:37;101092.84;;;-3.47;93.14
66021;BME280;52789;59.980;30.346;2022-12-07T10:05:05;101097.69;;;-3.38;93.33
66021;BME280;52789;59.980;30.346;2022-12-07T10:07:32;101100.84;;;-3.52;92.30
66021;BME280;52789;59.980;30.346;2022-12-07T10:09:58;101083.81;;;-3.59;93.49
66021;BME280;52789;59.980;30.346;2022-12-07T10:12:23;101065.72;;;-3.62;93.12
66021;BME280;52789;59.980;30.346;2022-12-07T10:15:03;101092.22;;;-3.72;92.69
66021;BME280;52789;59.980;30.346;2022-12-07T10:17:38;101080.47;;;-3.83;93.14
66021;BME280;52789;59.980;30.346;2022-12-07T10:22:38;101074.41;;;-3.83;93.44
66021;BME280;52789;59.980;30.346;2022-12-07T10:25:34;101064.78;;;-3.81;93.75
66021;BME280;52789;59.980;30.346;2022-12-07T10:28:09;101071.25;;;-3.69;94.03
66021;BME280;52789;59.980;30.346;2022-12-07T10:35:54;101068.72;;;-3.71;93.42
66021;BME280;52789;59.980;30.346;2022-12-07T10:38:20;101050.75;;;-3.97;93.85
66021;BME280;52789;59.980;30.346;2022-12-07T10:40:45;101060.19;;;-4.17;95.18
66021;BME280;52789;59.980;30.346;2022-12-07T10:51:47;101068.06;;;-4.40;97.21
66021;BME280;52789;59.980;30.346;2022-12-07T10:54:18;101068.72;;;-4.35;97.88
66021;BME280;52789;59.980;30.346;2022-12-07T10:57:23;101074.34;;;-4.24;96.78
66021;BME280;52789;59.980;30.346;2022-12-07T11:00:04;101064.66;;;-4.20;96.60
66021;BME280;52789;59.980;30.346;2022-12-07T11:07:49;101038.03;;;-4.05;96.36
66021;BME280;52789;59.980;30.346;2022-12-07T11:10:36;101039.63;;;-4.01;95.30
66021;BME280;52789;59.980;30.346;2022-12-07T11:13:28;101042.50;;;-4.09;95.08
66021;BME280;52789;59.980;30.346;2022-12-07T11:18:54;101034.88;;;-3.91;94.40
66021;BME280;52789;59.980;30.346;2022-12-07T11:21:29;101039.28;;;-3.93;93.19
66021;BME280;52789;59.980;30.346;2022-12-07T11:36:56;101027.84;;;-4.31;92.05
66021;BME280;52789;59.980;30.346;2022-12-07T11:41:52;101020.34;;;-4.17;91.60
66021;BME280;52789;59.980;30.346;2022-12-07T11:47:24;101021.44;;;-4.23;90.95
66021;BME280;52789;59.980;30.346;2022-12-07T11:52:27;101026.19;;;-4.12;90.95
66021;BME280;52789;59.980;30.346;2022-12-07T11:54:56;101022.59;;;-4.10;90.69
66021;BME280;52789;59.980;30.346;2022-12-07T11:57:38;101023.78;;;-4.17;90.41
66021;BME280;52789;59.980;30.346;2022-12-07T12:00:15;101024.88;;;-4.22;90.19
66021;BME280;52789;59.980;30.346;2022-12-07T12:05:23;101009.72;;;-4.33;90.92
66021;BME280;52789;59.980;30.346;2022-12-07T12:08:28;101007.22;;;-4.36;90.54
66021;BME280;52789;59.980;30.346;2022-12-07T12:19:25;101011.66;;;-4.60;92.91
66021;BME280;52789;59.980;30.346;2022-12-07T12:21:57;101001.34;;;-4.61;92.09
66021;BME280;52789;59.980;30.346;2022-12-07T12:24:28;101012.31;;;-4.55;92.44
66021;BME280;52789;59.980;30.346;2022-12-07T12:27:02;101009.91;;;-4.59;92.17
66021;BME280;52789;59.980;30.346;2022-12-07T12:29:39;101004.59;;;-4.56;92.80
66021;BME280;52789;59.980;30.346;2022-12-07T12:34:58;100983.28;;;-4.66;92.54
66021;BME280;52789;59.980;30.346;2022-12-07T12:42:47;100982.03;;;-4.78;92.94
66021;BME280;52789;59.980;30.346;2022-12-07T12:50:34;100987.03;;;-5.17;95.37
66021;BME280;52789;59.980;30.346;2022-12-07T13:00:43;100985.69;;;-5.05;94.88
66021;BME280;52789;59.980;30.346;2022-12-07T13:03:29;100989.09;;;-5.03;94.98
66021;BME280;52789;59.980;30.346;2022-12-07T13:09:22;100956.72;;;-5.16;94.65
66021;BME280;52789;59.980;30.346;2022-12-07T13:11:56;100970.78;;;-5.00;94.62
66021;BME280;52789;59.980;30.346;2022-12-07T13:20:03;100951.56;;;-4.96;93.82
66021;BME280;52789;59.980;30.346;2022-12-07T13:22:41;100963.44;;;-4.89;93.58
66021;BME280;52789;59.980;30.346;2022-12-07T13:27:41;100963.50;;;-4.90;93.70
66021;BME280;52789;59.980;30.346;2022-12-07T13:30:20;100944.25;;;-5.08;93.85
66021;BME280;52789;59.980;30.346;2022-12-07T13:32:56;100968.06;;;-4.97;94.12
66021;BME280;52789;59.980;30.346;2022-12-07T13:38:00;100981.78;;;-4.93;94.79
66021;BME280;52789;59.980;30.346;2022-12-07T13:40:27;100959.16;;;-4.90;93.83
66021;BME280;52789;59.980;30.346;2022-12-07T13:43:01;100971.31;;;-4.92;93.76
66021;BME280;52789;59.980;30.346;2022-12-07T13:45:30;100959.47;;;-4.99;93.46
66021;BME280;52789;59.980;30.346;2022-12-07T13:48:32;100957.66;;;-4.97;94.50
66021;BME280;52789;59.980;30.346;2022-12-07T13:51:02;100966.50;;;-5.01;93.95
66021;BME280;52789;59.980;30.346;2022-12-07T13:53:29;100951.41;;;-5.13;94.52
66021;BME280;52789;59.980;30.346;2022-12-07T13:56:00;100952.25;;;-5.13;95.22
66021;BME280;52789;59.980;30.346;2022-12-07T13:58:33;100952.06;;;-5.08;95.40
66021;BME280;52789;59.980;30.346;2022-12-07T14:00:59;100954.78;;;-5.11;95.08
66021;BME280;52789;59.980;30.346;2022-12-07T14:03:33;100959.19;;;-5.13;94.97
66021;BME280;52789;59.980;30.346;2022-12-07T14:06:22;100965.94;;;-5.09;94.79
66021;BME280;52789;59.980;30.346;2022-12-07T14:08:51;100967.69;;;-5.10;94.76
66021;BME280;52789;59.980;30.346;2022-12-07T14:11:33;100943.47;;;-5.10;94.99
66021;BME280;52789;59.980;30.346;2022-12-07T14:14:01;100946.97;;;-5.11;94.63
66021;BME280;52789;59.980;30.346;2022-12-07T14:16:36;100934.19;;;-5.16;94.01
66021;BME280;52789;59.980;30.346;2022-12-07T14:19:05;100937.50;;;-5.12;94.80
66021;BME280;52789;59.980;30.346;2022-12-07T14:21:34;100944.03;;;-5.02;94.47
66021;BME280;52789;59.980;30.346;2022-12-07T14:24:19;100928.69;;;-5.08;93.59
66021;BME280;52789;59.980;30.346;2022-12-07T14:26:46;100935.31;;;-5.01;93.87
66021;BME280;52789;59.980;30.346;2022-12-07T14:29:38;100936.63;;;-4.89;93.71
66021;BME280;52789;59.980;30.346;2022-12-07T14:32:25;100923.84;;;-4.95;92.97
66021;BME280;52789;59.980;30.346;2022-12-07T14:35:03;100928.19;;;-4.96;93.01
66021;BME280;52789;59.980;30.346;2022-12-07T14:37:33;100923.38;;;-5.05;92.77
66021;BME280;52789;59.980;30.346;2022-12-07T14:39:58;100923.63;;;-5.11;92.37
66021;BME280;52789;59.980;30.346;2022-12-07T14:42:29;100929.84;;;-5.15;92.91
66021;BME280;52789;59.980;30.346;2022-12-07T14:44:57;100919.84;;;-5.26;93.57
66021;BME280;52789;59.980;30.346;2022-12-07T14:47:24;100913.81;;;-5.26;93.26
66021;BME280;52789;59.980;30.346;2022-12-07T14:49:50;100912.00;;;-5.24;93.56
66021;BME280;52789;59.980;30.346;2022-12-07T14:52:28;100916.84;;;-5.15;93.94
66021;BME280;52789;59.980;30.346;2022-12-07T14:54:53;100909.19;;;-5.18;93.66
66021;BME280;52789;59.980;30.346;2022-12-07T14:57:19;100909.84;;;-5.13;93.01
66021;BME280;52789;59.980;30.346;2022-12-07T14:59:44;100903.38;;;-5.03;93.83
66021;BME280;52789;59.980;30.346;2022-12-07T15:02:12;100916.25;;;-5.00;93.52
66021;BME280;52789;59.980;30.346;2022-12-07T15:04:38;100902.72;;;-5.08;92.94
66021;BME280;52789;59.980;30.346;2022-12-07T15:07:08;100915.63;;;-5.07;92.40
66021;BME280;52789;59.980;30.346;2022-12-07T15:09:35;100909.34;;;-5.01;92.84